sensor_id;sensor_type;location;lat;lon;timestamp;P1;durP1;ratioP1;P2;durP2;ratioP2
21567;SDS011;10944;42.590;12.630;2023-03-13T00:01:22;9.20;;;2.78;;
21567;SDS011;10944;42.590;12.630;2023-03-13T00:03:53;5.28;;;2.90;;
21567;SDS011;10944;42.590;12.630;2023-03-13T00:06:19;12.55;;;6.25;;
21567;SDS011;10944;42.590;12.630;2023-03-13T00:08:46;15.48;;;8.00;;
21567;SDS011;10944;42.590;12.630;2023-03-13T00:11:12;13.60;;;8.38;;
21567;SDS011;10944;42.590;12.630;2023-03-13T00:13:39;14.32;;;8.93;;
21567;SDS011;10944;42.590;12.630;2023-03-13T00:16:09;13.65;;;7.80;;
21567;SDS011;10944;42.590;12.630;2023-03-13T00:18:37;12.18;;;7.53;;
21567;SDS011;10944;42.590;12.630;2023-03-13T00:21:04;11.25;;;6.78;;
21567;SDS011;10944;42.590;12.630;2023-03-13T00:23:34;12.68;;;7.03;;
21567;SDS011;10944;42.590;12.630;2023-03-13T00:26:03;11.15;;;5.95;;
21567;SDS011;10944;42.590;12.630;2023-03-13T00:28:31;11.15;;;5.07;;
21567;SDS011;10944;42.590;12.630;2023-03-13T00:31:05;8.38;;;4.55;;
21567;SDS011;10944;42.590;12.630;2023-03-13T00:33:36;8.45;;;3.80;;
21567;SDS011;10944;42.590;12.630;2023-03-13T00:36:12;6.55;;;3.50;;
21567;SDS011;10944;42.590;12.630;2023-03-13T00:38:43;4.50;;;2.83;;
21567;SDS011;10944;42.590;12.630;2023-03-13T00:41:10;6.93;;;3.33;;
21567;SDS011;10944;42.590;12.630;2023-03-13T00:43:38;5.55;;;2.72;;
21567;SDS011;10944;42.590;12.630;2023-03-13T00:46:05;7.97;;;3.40;;
21567;SDS011;10944;42.590;12.630;2023-03-13T00:48:31;5.57;;;2.75;;
21567;SDS011;10944;42.590;12.630;2023-03-13T00:50:57;4.80;;;2.90;;
21567;SDS011;10944;42.590;12.630;2023-03-13T00:53:24;5.28;;;3.00;;
21567;SDS011;10944;42.590;12.630;2023-03-13T00:56:01;5.60;;;3.25;;
21567;SDS011;10944;42.590;12.630;2023-03-13T00:58:30;7.38;;;3.10;;
21567;SDS011;10944;42.590;12.630;2023-03-13T01:01:04;6.47;;;3.38;;
21567;SDS011;10944;42.590;12.630;2023-03-13T01:03:39;7.25;;;3.30;;
21567;SDS011;10944;42.590;12.630;2023-03-13T01:06:09;6.45;;;3.08;;
21567;SDS011;10944;42.590;12.630;2023-03-13T01:08:36;5.70;;;3.00;;
21567;SDS011;10944;42.590;12.630;2023-03-13T01:11:13;6.55;;;3.30;;
21567;SDS011;10944;42.590;12.630;2023-03-13T01:13:40;5.20;;;2.90;;
21567;SDS011;10944;42.590;12.630;2023-03-13T01:18:34;6.68;;;3.15;;
21567;SDS011;10944;42.590;12.630;2023-03-13T01:21:01;5.63;;;3.22;;
21567;SDS011;10944;42.590;12.630;2023-03-13T01:23:27;6.68;;;3.40;;
21567;SDS011;10944;42.590;12.630;2023-03-13T01:25:53;5.38;;;3.13;;
21567;SDS011;10944;42.590;12.630;2023-03-13T01:28:20;6.95;;;3.42;;
21567;SDS011;10944;42.590;12.630;2023-03-13T01:30:46;5.82;;;3.20;;
21567;SDS011;10944;42.590;12.630;2023-03-13T01:33:11;6.13;;;2.95;;
21567;SDS011;10944;42.590;12.630;2023-03-13T01:35:37;6.10;;;3.50;;
21567;SDS011;10944;42.590;12.630;2023-03-13T01:38:03;7.05;;;3.30;;
21567;SDS011;10944;42.590;12.630;2023-03-13T01:40:29;5.88;;;2.78;;
21567;SDS011;10944;42.590;12.630;2023-03-13T01:42:58;5.63;;;3.05;;
21567;SDS011;10944;42.590;12.630;2023-03-13T01:51:09;7.10;;;2.70;;
21567;SDS011;10944;42.590;12.630;2023-03-13T01:53:40;5.60;;;2.92;;
21567;SDS011;10944;42.590;12.630;2023-03-13T01:56:10;5.10;;;2.73;;
21567;SDS011;10944;42.590;12.630;2023-03-13T01:58:41;5.20;;;3.40;;
21567;SDS011;10944;42.590;12.630;2023-03-13T02:01:07;5.83;;;3.40;;
21567;SDS011;10944;42.590;12.630;2023-03-13T02:03:33;6.80;;;3.63;;
21567;SDS011;10944;42.590;12.630;2023-03-13T02:06:00;5.82;;;3.58;;
21567;SDS011;10944;42.590;12.630;2023-03-13T02:08:30;7.82;;;3.55;;
21567;SDS011;10944;42.590;12.630;2023-03-13T02:11:06;6.97;;;3.40;;
21567;SDS011;10944;42.590;12.630;2023-03-13T02:13:49;5.93;;;3.30;;
21567;SDS011;10944;42.590;12.630;2023-03-13T02:16:15;7.35;;;2.92;;
21567;SDS011;10944;42.590;12.630;2023-03-13T02:18:42;5.57;;;3.10;;
21567;SDS011;10944;42.590;12.630;2023-03-13T02:21:13;4.40;;;2.50;;
21567;SDS011;10944;42.590;12.630;2023-03-13T02:23:52;5.00;;;2.42;;
21567;SDS011;10944;42.590;12.630;2023-03-13T02:26:25;6.88;;;2.72;;
21567;SDS011;10944;42.590;12.630;2023-03-13T02:28:51;6.00;;;2.60;;
21567;SDS011;10944;42.590;12.630;2023-03-13T02:31:17;4.32;;;2.17;;
21567;SDS011;10944;42.590;12.630;2023-03-13T02:33:43;4.43;;;2.47;;
21567;SDS011;10944;42.590;12.630;2023-03-13T02:36:09;5.03;;;2.50;;
21567;SDS011;10944;42.590;12.630;2023-03-13T02:38:39;4.82;;;2.42;;
21567;SDS011;10944;42.590;12.630;2023-03-13T02:41:10;5.80;;;2.67;;
21567;SDS011;10944;42.590;12.630;2023-03-13T02:43:37;4.60;;;2.40;;
21567;SDS011;10944;42.590;12.630;2023-03-13T02:46:04;5.45;;;2.47;;
21567;SDS011;10944;42.590;12.630;2023-03-13T02:48:31;4.25;;;2.40;;
21567;SDS011;10944;42.590;12.630;2023-03-13T02:51:03;6.07;;;2.70;;
21567;SDS011;10944;42.590;12.630;2023-03-13T02:53:32;3.70;;;2.30;;
21567;SDS011;10944;42.590;12.630;2023-03-13T02:55:59;4.22;;;2.22;;
21567;SDS011;10944;42.590;12.630;2023-03-13T02:58:25;6.63;;;2.55;;
21567;SDS011;10944;42.590;12.630;2023-03-13T03:00:51;6.95;;;2.78;;
21567;SDS011;10944;42.590;12.630;2023-03-13T03:03:17;4.65;;;2.50;;
21567;SDS011;10944;42.590;12.630;2023-03-13T03:05:43;6.03;;;2.40;;
21567;SDS011;10944;42.590;12.630;2023-03-13T03:08:09;5.55;;;2.47;;
21567;SDS011;10944;42.590;12.630;2023-03-13T03:10:35;4.55;;;2.67;;
21567;SDS011;10944;42.590;12.630;2023-03-13T03:13:01;4.00;;;2.30;;
21567;SDS011;10944;42.590;12.630;2023-03-13T03:15:27;5.07;;;2.30;;
21567;SDS011;10944;42.590;12.630;2023-03-13T03:17:53;5.38;;;2.67;;
21567;SDS011;10944;42.590;12.630;2023-03-13T03:20:18;5.38;;;2.50;;
21567;SDS011;10944;42.590;12.630;2023-03-13T03:22:44;4.53;;;2.30;;
21567;SDS011;10944;42.590;12.630;2023-03-13T03:25:10;6.45;;;2.58;;
21567;SDS011;10944;42.590;12.630;2023-03-13T03:27:35;4.85;;;2.60;;
21567;SDS011;10944;42.590;12.630;2023-03-13T03:30:02;6.28;;;2.50;;
21567;SDS011;10944;42.590;12.630;2023-03-13T03:32:28;7.78;;;2.95;;
21567;SDS011;10944;42.590;12.630;2023-03-13T03:34:54;5.80;;;2.65;;
21567;SDS011;10944;42.590;12.630;2023-03-13T03:37:19;5.53;;;2.45;;
21567;SDS011;10944;42.590;12.630;2023-03-13T03:39:45;4.13;;;2.50;;
21567;SDS011;10944;42.590;12.630;2023-03-13T03:42:11;5.30;;;2.42;;
21567;SDS011;10944;42.590;12.630;2023-03-13T03:44:36;4.82;;;2.65;;
21567;SDS011;10944;42.590;12.630;2023-03-13T03:47:02;5.63;;;2.58;;
21567;SDS011;10944;42.590;12.630;2023-03-13T03:49:28;5.53;;;2.60;;
21567;SDS011;10944;42.590;12.630;2023-03-13T03:51:53;4.38;;;2.40;;
21567;SDS011;10944;42.590;12.630;2023-03-13T03:54:19;4.73;;;2.40;;
21567;SDS011;10944;42.590;12.630;2023-03-13T03:56:45;4.75;;;2.10;;
21567;SDS011;10944;42.590;12.630;2023-03-13T03:59:10;5.50;;;2.47;;
21567;SDS011;10944;42.590;12.630;2023-03-13T04:01:36;5.30;;;2.70;;
21567;SDS011;10944;42.590;12.630;2023-03-13T04:04:02;4.82;;;2.40;;
21567;SDS011;10944;42.590;12.630;2023-03-13T04:06:27;5.82;;;2.50;;
21567;SDS011;10944;42.590;12.630;2023-03-13T04:08:54;4.20;;;2.00;;
21567;SDS011;10944;42.590;12.630;2023-03-13T04:11:20;5.50;;;2.38;;
21567;SDS011;10944;42.590;12.630;2023-03-13T04:13:46;7.22;;;2.30;;
21567;SDS011;10944;42.590;12.630;2023-03-13T04:16:11;5.97;;;2.10;;
21567;SDS011;10944;42.590;12.630;2023-03-13T04:18:37;4.20;;;2.30;;
21567;SDS011;10944;42.590;12.630;2023-03-13T04:21:03;4.43;;;2.20;;
21567;SDS011;10944;42.590;12.630;2023-03-13T04:23:30;4.68;;;2.35;;
21567;SDS011;10944;42.590;12.630;2023-03-13T04:25:55;3.55;;;2.05;;
21567;SDS011;10944;42.590;12.630;2023-03-13T04:28:21;4.00;;;2.08;;
21567;SDS011;10944;42.590;12.630;2023-03-13T04:30:47;6.50;;;2.00;;
21567;SDS011;10944;42.590;12.630;2023-03-13T04:33:12;4.40;;;2.30;;
21567;SDS011;10944;42.590;12.630;2023-03-13T04:35:38;4.75;;;2.72;;
21567;SDS011;10944;42.590;12.630;2023-03-13T04:38:04;5.45;;;2.60;;
21567;SDS011;10944;42.590;12.630;2023-03-13T04:40:29;5.47;;;2.33;;
21567;SDS011;10944;42.590;12.630;2023-03-13T04:42:55;5.32;;;2.30;;
21567;SDS011;10944;42.590;12.630;2023-03-13T04:45:21;4.85;;;2.58;;
21567;SDS011;10944;42.590;12.630;2023-03-13T04:47:46;5.53;;;2.70;;
21567;SDS011;10944;42.590;12.630;2023-03-13T04:50:12;4.93;;;2.67;;
21567;SDS011;10944;42.590;12.630;2023-03-13T04:52:38;5.90;;;2.85;;
21567;SDS011;10944;42.590;12.630;2023-03-13T04:55:03;5.25;;;2.90;;
21567;SDS011;10944;42.590;12.630;2023-03-13T04:57:29;5.57;;;2.83;;
21567;SDS011;10944;42.590;12.630;2023-03-13T04:59:55;5.57;;;2.75;;
21567;SDS011;10944;42.590;12.630;2023-03-13T05:02:21;5.53;;;2.72;;
21567;SDS011;10944;42.590;12.630;2023-03-13T05:04:47;6.63;;;3.10;;
21567;SDS011;10944;42.590;12.630;2023-03-13T05:07:12;6.30;;;2.93;;
21567;SDS011;10944;42.590;12.630;2023-03-13T05:09:38;8.33;;;2.63;;
21567;SDS011;10944;42.590;12.630;2023-03-13T05:12:04;6.43;;;3.00;;
21567;SDS011;10944;42.590;12.630;2023-03-13T05:14:30;6.78;;;2.60;;
21567;SDS011;10944;42.590;12.630;2023-03-13T05:16:55;6.75;;;2.10;;
21567;SDS011;10944;42.590;12.630;2023-03-13T05:19:21;6.47;;;2.45;;
21567;SDS011;10944;42.590;12.630;2023-03-13T05:21:46;8.25;;;2.55;;
21567;SDS011;10944;42.590;12.630;2023-03-13T05:24:12;4.32;;;2.17;;
21567;SDS011;10944;42.590;12.630;2023-03-13T05:26:38;5.35;;;2.35;;
21567;SDS011;10944;42.590;12.630;2023-03-13T05:29:03;4.55;;;2.30;;
21567;SDS011;10944;42.590;12.630;2023-03-13T05:31:29;6.05;;;2.50;;
21567;SDS011;10944;42.590;12.630;2023-03-13T05:33:55;3.97;;;2.30;;
21567;SDS011;10944;42.590;12.630;2023-03-13T05:36:20;4.30;;;2.13;;
21567;SDS011;10944;42.590;12.630;2023-03-13T05:38:46;6.72;;;2.55;;
21567;SDS011;10944;42.590;12.630;2023-03-13T05:41:12;5.05;;;2.67;;
21567;SDS011;10944;42.590;12.630;2023-03-13T05:43:37;4.57;;;2.40;;
21567;SDS011;10944;42.590;12.630;2023-03-13T05:46:03;5.60;;;2.50;;
21567;SDS011;10944;42.590;12.630;2023-03-13T05:48:29;4.65;;;2.72;;
21567;SDS011;10944;42.590;12.630;2023-03-13T05:50:54;5.13;;;2.72;;
21567;SDS011;10944;42.590;12.630;2023-03-13T05:53:20;5.28;;;2.60;;
21567;SDS011;10944;42.590;12.630;2023-03-13T05:55:46;7.35;;;2.50;;
21567;SDS011;10944;42.590;12.630;2023-03-13T05:58:11;5.07;;;2.40;;
21567;SDS011;10944;42.590;12.630;2023-03-13T06:00:37;4.82;;;2.50;;
21567;SDS011;10944;42.590;12.630;2023-03-13T06:03:03;6.25;;;2.42;;
21567;SDS011;10944;42.590;12.630;2023-03-13T06:05:28;6.25;;;2.63;;
21567;SDS011;10944;42.590;12.630;2023-03-13T06:07:54;6.13;;;2.70;;
21567;SDS011;10944;42.590;12.630;2023-03-13T06:10:20;7.30;;;2.95;;
21567;SDS011;10944;42.590;12.630;2023-03-13T06:12:52;4.82;;;2.45;;
21567;SDS011;10944;42.590;12.630;2023-03-13T06:15:21;7.07;;;2.70;;
21567;SDS011;10944;42.590;12.630;2023-03-13T06:17:47;5.50;;;2.65;;
21567;SDS011;10944;42.590;12.630;2023-03-13T06:20:13;5.60;;;2.75;;
21567;SDS011;10944;42.590;12.630;2023-03-13T06:22:39;6.07;;;2.58;;
21567;SDS011;10944;42.590;12.630;2023-03-13T06:25:06;7.05;;;2.47;;
21567;SDS011;10944;42.590;12.630;2023-03-13T06:27:32;4.78;;;2.60;;
21567;SDS011;10944;42.590;12.630;2023-03-13T06:29:57;5.03;;;2.80;;
21567;SDS011;10944;42.590;12.630;2023-03-13T06:32:23;4.43;;;2.40;;
21567;SDS011;10944;42.590;12.630;2023-03-13T06:34:49;6.38;;;2.30;;
21567;SDS011;10944;42.590;12.630;2023-03-13T06:37:14;4.65;;;2.35;;
21567;SDS011;10944;42.590;12.630;2023-03-13T06:39:40;5.15;;;2.47;;
21567;SDS011;10944;42.590;12.630;2023-03-13T06:42:06;6.05;;;2.30;;
21567;SDS011;10944;42.590;12.630;2023-03-13T06:44:32;5.63;;;2.22;;
21567;SDS011;10944;42.590;12.630;2023-03-13T06:46:58;3.85;;;1.90;;
21567;SDS011;10944;42.590;12.630;2023-03-13T06:49:24;4.88;;;2.40;;
21567;SDS011;10944;42.590;12.630;2023-03-13T06:51:49;4.30;;;2.10;;
21567;SDS011;10944;42.590;12.630;2023-03-13T06:54:15;5.47;;;2.30;;
21567;SDS011;10944;42.590;12.630;2023-03-13T06:56:41;5.40;;;2.33;;
21567;SDS011;10944;42.590;12.630;2023-03-13T06:59:06;3.50;;;2.10;;
21567;SDS011;10944;42.590;12.630;2023-03-13T07:01:32;6.60;;;2.70;;
21567;SDS011;10944;42.590;12.630;2023-03-13T07:03:58;7.35;;;2.80;;
21567;SDS011;10944;42.590;12.630;2023-03-13T07:06:23;6.32;;;2.80;;
21567;SDS011;10944;42.590;12.630;2023-03-13T07:08:50;5.22;;;2.53;;
21567;SDS011;10944;42.590;12.630;2023-03-13T07:11:16;8.60;;;2.90;;
21567;SDS011;10944;42.590;12.630;2023-03-13T07:13:42;6.22;;;2.60;;
21567;SDS011;10944;42.590;12.630;2023-03-13T07:16:09;5.03;;;2.42;;
21567;SDS011;10944;42.590;12.630;2023-03-13T07:18:36;5.15;;;2.30;;
21567;SDS011;10944;42.590;12.630;2023-03-13T07:21:03;5.75;;;2.50;;
21567;SDS011;10944;42.590;12.630;2023-03-13T07:23:29;5.47;;;2.40;;
21567;SDS011;10944;42.590;12.630;2023-03-13T07:25:57;4.93;;;2.20;;
21567;SDS011;10944;42.590;12.630;2023-03-13T07:28:25;5.10;;;2.30;;
21567;SDS011;10944;42.590;12.630;2023-03-13T07:30:51;6.68;;;2.67;;
21567;SDS011;10944;42.590;12.630;2023-03-13T07:33:17;5.43;;;2.40;;
21567;SDS011;10944;42.590;12.630;2023-03-13T07:35:50;5.93;;;2.47;;
21567;SDS011;10944;42.590;12.630;2023-03-13T07:38:17;4.45;;;2.35;;
21567;SDS011;10944;42.590;12.630;2023-03-13T07:40:50;7.13;;;2.70;;
21567;SDS011;10944;42.590;12.630;2023-03-13T07:43:17;7.22;;;2.60;;
21567;SDS011;10944;42.590;12.630;2023-03-13T07:45:53;4.13;;;2.42;;
21567;SDS011;10944;42.590;12.630;2023-03-13T07:48:30;6.88;;;2.60;;
21567;SDS011;10944;42.590;12.630;2023-03-13T07:50:57;7.20;;;2.42;;
21567;SDS011;10944;42.590;12.630;2023-03-13T07:53:24;7.25;;;2.42;;
21567;SDS011;10944;42.590;12.630;2023-03-13T07:55:51;4.85;;;2.38;;
21567;SDS011;10944;42.590;12.630;2023-03-13T07:58:18;4.97;;;2.53;;
21567;SDS011;10944;42.590;12.630;2023-03-13T08:00:44;4.63;;;2.72;;
21567;SDS011;10944;42.590;12.630;2023-03-13T08:03:10;7.22;;;2.70;;
21567;SDS011;10944;42.590;12.630;2023-03-13T08:05:35;4.95;;;2.67;;
21567;SDS011;10944;42.590;12.630;2023-03-13T08:08:01;6.28;;;2.65;;
21567;SDS011;10944;42.590;12.630;2023-03-13T08:10:27;6.07;;;2.80;;
21567;SDS011;10944;42.590;12.630;2023-03-13T08:12:52;10.30;;;3.70;;
21567;SDS011;10944;42.590;12.630;2023-03-13T08:15:18;7.55;;;3.85;;
21567;SDS011;10944;42.590;12.630;2023-03-13T08:17:49;9.40;;;4.72;;
21567;SDS011;10944;42.590;12.630;2023-03-13T08:20:15;9.85;;;4.38;;
21567;SDS011;10944;42.590;12.630;2023-03-13T08:22:43;7.80;;;2.92;;
21567;SDS011;10944;42.590;12.630;2023-03-13T08:25:12;7.97;;;2.90;;
21567;SDS011;10944;42.590;12.630;2023-03-13T08:27:39;7.78;;;2.63;;
21567;SDS011;10944;42.590;12.630;2023-03-13T08:30:05;6.80;;;2.78;;
21567;SDS011;10944;42.590;12.630;2023-03-13T08:32:32;8.05;;;2.80;;
21567;SDS011;10944;42.590;12.630;2023-03-13T08:34:58;8.43;;;2.60;;
21567;SDS011;10944;42.590;12.630;2023-03-13T08:37:23;6.72;;;2.53;;
21567;SDS011;10944;42.590;12.630;2023-03-13T08:39:49;4.68;;;2.25;;
21567;SDS011;10944;42.590;12.630;2023-03-13T08:42:15;5.85;;;2.70;;
21567;SDS011;10944;42.590;12.630;2023-03-13T08:44:40;7.15;;;2.55;;
21567;SDS011;10944;42.590;12.630;2023-03-13T08:47:07;5.95;;;2.40;;
21567;SDS011;10944;42.590;12.630;2023-03-13T08:49:33;6.40;;;2.45;;
21567;SDS011;10944;42.590;12.630;2023-03-13T08:51:58;7.93;;;2.55;;
21567;SDS011;10944;42.590;12.630;2023-03-13T08:54:24;5.65;;;2.45;;
21567;SDS011;10944;42.590;12.630;2023-03-13T08:56:50;9.35;;;2.35;;
21567;SDS011;10944;42.590;12.630;2023-03-13T08:59:16;6.07;;;2.70;;
21567;SDS011;10944;42.590;12.630;2023-03-13T09:01:42;7.78;;;2.85;;
21567;SDS011;10944;42.590;12.630;2023-03-13T09:04:07;7.85;;;2.90;;
21567;SDS011;10944;42.590;12.630;2023-03-13T09:06:34;7.32;;;2.83;;
21567;SDS011;10944;42.590;12.630;2023-03-13T09:09:01;6.78;;;2.90;;
21567;SDS011;10944;42.590;12.630;2023-03-13T09:11:28;7.53;;;2.90;;
21567;SDS011;10944;42.590;12.630;2023-03-13T09:13:54;7.82;;;3.13;;
21567;SDS011;10944;42.590;12.630;2023-03-13T09:16:23;6.78;;;3.17;;
21567;SDS011;10944;42.590;12.630;2023-03-13T09:18:51;7.47;;;2.70;;
21567;SDS011;10944;42.590;12.630;2023-03-13T09:21:19;9.30;;;3.28;;
21567;SDS011;10944;42.590;12.630;2023-03-13T09:23:46;7.95;;;3.42;;
21567;SDS011;10944;42.590;12.630;2023-03-13T09:26:13;8.10;;;3.10;;
21567;SDS011;10944;42.590;12.630;2023-03-13T09:28:39;9.88;;;3.22;;
21567;SDS011;10944;42.590;12.630;2023-03-13T09:31:10;8.55;;;3.17;;
21567;SDS011;10944;42.590;12.630;2023-03-13T09:33:40;8.68;;;3.65;;
21567;SDS011;10944;42.590;12.630;2023-03-13T09:36:07;8.82;;;3.47;;
21567;SDS011;10944;42.590;12.630;2023-03-13T09:38:33;10.32;;;3.70;;
21567;SDS011;10944;42.590;12.630;2023-03-13T09:41:01;9.85;;;3.45;;
21567;SDS011;10944;42.590;12.630;2023-03-13T09:54:51;11.10;;;3.83;;
21567;SDS011;10944;42.590;12.630;2023-03-13T10:02:45;23.55;;;13.15;;
21567;SDS011;10944;42.590;12.630;2023-03-13T10:07:48;14.68;;;6.70;;
21567;SDS011;10944;42.590;12.630;2023-03-13T10:10:15;30.50;;;16.90;;
21567;SDS011;10944;42.590;12.630;2023-03-13T10:12:46;14.27;;;6.55;;
21567;SDS011;10944;42.590;12.630;2023-03-13T10:17:58;23.35;;;9.82;;
21567;SDS011;10944;42.590;12.630;2023-03-13T10:20:33;44.53;;;26.50;;
21567;SDS011;10944;42.590;12.630;2023-03-13T10:23:02;54.13;;;32.80;;
21567;SDS011;10944;42.590;12.630;2023-03-13T10:25:35;32.70;;;19.35;;
21567;SDS011;10944;42.590;12.630;2023-03-13T10:28:12;17.40;;;9.70;;
21567;SDS011;10944;42.590;12.630;2023-03-13T10:30:46;23.52;;;9.60;;
21567;SDS011;10944;42.590;12.630;2023-03-13T10:33:24;17.48;;;7.60;;
21567;SDS011;10944;42.590;12.630;2023-03-13T10:36:02;11.95;;;6.00;;
21567;SDS011;10944;42.590;12.630;2023-03-13T10:38:34;11.93;;;4.97;;
21567;SDS011;10944;42.590;12.630;2023-03-13T10:41:17;13.52;;;5.05;;
21567;SDS011;10944;42.590;12.630;2023-03-13T10:43:51;15.55;;;5.20;;
21567;SDS011;10944;42.590;12.630;2023-03-13T10:46:26;12.25;;;5.07;;
21567;SDS011;10944;42.590;12.630;2023-03-13T10:48:55;14.00;;;5.68;;
21567;SDS011;10944;42.590;12.630;2023-03-13T10:51:22;16.20;;;8.55;;
21567;SDS011;10944;42.590;12.630;2023-03-13T10:53:49;14.02;;;5.88;;
21567;SDS011;10944;42.590;12.630;2023-03-13T10:56:21;11.18;;;5.05;;
21567;SDS011;10944;42.590;12.630;2023-03-13T10:58:51;15.57;;;5.78;;
21567;SDS011;10944;42.590;12.630;2023-03-13T11:01:19;13.30;;;4.90;;
21567;SDS011;10944;42.590;12.630;2023-03-13T11:06:51;11.90;;;5.10;;
21567;SDS011;10944;42.590;12.630;2023-03-13T11:09:21;12.60;;;5.47;;
21567;SDS011;10944;42.590;12.630;2023-03-13T11:11:52;14.20;;;5.63;;
21567;SDS011;10944;42.590;12.630;2023-03-13T11:14:20;11.60;;;5.03;;
21567;SDS011;10944;42.590;12.630;2023-03-13T11:22:03;14.13;;;5.20;;
21567;SDS011;10944;42.590;12.630;2023-03-13T11:24:48;10.13;;;4.90;;
21567;SDS011;10944;42.590;12.630;2023-03-13T11:27:48;11.27;;;5.07;;
21567;SDS011;10944;42.590;12.630;2023-03-13T11:35:49;11.50;;;4.70;;
21567;SDS011;10944;42.590;12.630;2023-03-13T11:38:34;12.20;;;5.13;;
21567;SDS011;10944;42.590;12.630;2023-03-13T11:44:02;17.73;;;7.45;;
21567;SDS011;10944;42.590;12.630;2023-03-13T11:49:42;12.40;;;5.32;;
21567;SDS011;10944;42.590;12.630;2023-03-13T11:52:23;15.85;;;6.28;;
21567;SDS011;10944;42.590;12.630;2023-03-13T12:00:37;9.15;;;4.68;;
21567;SDS011;10944;42.590;12.630;2023-03-13T12:05:52;9.38;;;4.20;;
21567;SDS011;10944;42.590;12.630;2023-03-13T12:08:38;11.50;;;4.20;;
21567;SDS011;10944;42.590;12.630;2023-03-13T12:11:14;8.82;;;4.25;;
21567;SDS011;10944;42.590;12.630;2023-03-13T12:14:08;10.60;;;3.92;;
21567;SDS011;10944;42.590;12.630;2023-03-13T12:19:20;12.77;;;4.30;;
21567;SDS011;10944;42.590;12.630;2023-03-13T12:21:50;9.88;;;3.63;;
21567;SDS011;10944;42.590;12.630;2023-03-13T12:24:25;8.63;;;3.17;;
21567;SDS011;10944;42.590;12.630;2023-03-13T12:27:02;8.57;;;2.95;;
21567;SDS011;10944;42.590;12.630;2023-03-13T12:29:44;9.95;;;3.60;;
21567;SDS011;10944;42.590;12.630;2023-03-13T12:32:33;10.10;;;3.80;;
21567;SDS011;10944;42.590;12.630;2023-03-13T12:35:16;10.43;;;4.05;;
21567;SDS011;10944;42.590;12.630;2023-03-13T12:37:52;10.13;;;3.08;;
21567;SDS011;10944;42.590;12.630;2023-03-13T12:40:24;8.05;;;3.15;;
21567;SDS011;10944;42.590;12.630;2023-03-13T12:45:52;9.52;;;3.25;;
21567;SDS011;10944;42.590;12.630;2023-03-13T12:51:14;9.35;;;3.30;;
21567;SDS011;10944;42.590;12.630;2023-03-13T12:59:35;9.40;;;2.78;;
21567;SDS011;10944;42.590;12.630;2023-03-13T13:02:18;8.55;;;3.00;;
21567;SDS011;10944;42.590;12.630;2023-03-13T13:04:47;8.43;;;2.88;;
21567;SDS011;10944;42.590;12.630;2023-03-13T13:12:25;7.68;;;2.95;;
21567;SDS011;10944;42.590;12.630;2023-03-13T13:19:48;7.47;;;3.55;;
21567;SDS011;10944;42.590;12.630;2023-03-13T13:37:40;10.82;;;3.08;;
21567;SDS011;10944;42.590;12.630;2023-03-13T13:40:17;9.52;;;3.72;;
21567;SDS011;10944;42.590;12.630;2023-03-13T13:42:59;7.90;;;3.40;;
21567;SDS011;10944;42.590;12.630;2023-03-13T13:45:29;11.80;;;5.50;;
21567;SDS011;10944;42.590;12.630;2023-03-13T13:48:14;10.55;;;3.20;;
21567;SDS011;10944;42.590;12.630;2023-03-13T14:01:36;9.77;;;3.90;;
21567;SDS011;10944;42.590;12.630;2023-03-13T14:04:26;11.65;;;4.05;;
21567;SDS011;10944;42.590;12.630;2023-03-13T14:06:56;9.32;;;3.70;;
21567;SDS011;10944;42.590;12.630;2023-03-13T14:12:00;11.52;;;3.58;;
21567;SDS011;10944;42.590;12.630;2023-03-13T14:14:25;9.95;;;3.80;;
21567;SDS011;10944;42.590;12.630;2023-03-13T14:16:52;11.07;;;3.45;;
21567;SDS011;10944;42.590;12.630;2023-03-13T14:19:27;9.73;;;3.60;;
21567;SDS011;10944;42.590;12.630;2023-03-13T14:21:58;8.70;;;3.40;;
21567;SDS011;10944;42.590;12.630;2023-03-13T14:24:25;16.50;;;6.45;;
21567;SDS011;10944;42.590;12.630;2023-03-13T14:26:51;12.35;;;5.03;;
21567;SDS011;10944;42.590;12.630;2023-03-13T14:29:17;12.88;;;3.97;;
21567;SDS011;10944;42.590;12.630;2023-03-13T14:31:50;9.73;;;3.50;;
21567;SDS011;10944;42.590;12.630;2023-03-13T14:34:20;9.43;;;3.33;;
21567;SDS011;10944;42.590;12.630;2023-03-13T14:36:47;11.55;;;3.13;;
21567;SDS011;10944;42.590;12.630;2023-03-13T14:39:18;11.95;;;3.60;;
21567;SDS011;10944;42.590;12.630;2023-03-13T14:42:08;11.25;;;3.35;;
21567;SDS011;10944;42.590;12.630;2023-03-13T14:44:39;7.60;;;2.92;;
21567;SDS011;10944;42.590;12.630;2023-03-13T14:47:12;8.70;;;2.70;;
21567;SDS011;10944;42.590;12.630;2023-03-13T14:49:57;8.23;;;3.05;;
21567;SDS011;10944;42.590;12.630;2023-03-13T14:52:28;10.55;;;3.42;;
21567;SDS011;10944;42.590;12.630;2023-03-13T14:54:57;7.03;;;3.15;;
21567;SDS011;10944;42.590;12.630;2023-03-13T14:57:26;9.30;;;3.15;;
21567;SDS011;10944;42.590;12.630;2023-03-13T14:59:52;9.20;;;3.15;;
21567;SDS011;10944;42.590;12.630;2023-03-13T15:02:26;9.27;;;3.10;;
21567;SDS011;10944;42.590;12.630;2023-03-13T15:05:01;10.18;;;3.15;;
21567;SDS011;10944;42.590;12.630;2023-03-13T15:07:44;9.10;;;2.90;;
21567;SDS011;10944;42.590;12.630;2023-03-13T15:13:15;9.95;;;3.10;;
21567;SDS011;10944;42.590;12.630;2023-03-13T15:15:45;9.60;;;3.00;;
21567;SDS011;10944;42.590;12.630;2023-03-13T15:18:21;7.22;;;2.42;;
21567;SDS011;10944;42.590;12.630;2023-03-13T15:20:49;6.97;;;2.50;;
21567;SDS011;10944;42.590;12.630;2023-03-13T15:23:17;7.70;;;2.50;;
21567;SDS011;10944;42.590;12.630;2023-03-13T15:25:44;9.15;;;3.15;;
21567;SDS011;10944;42.590;12.630;2023-03-13T15:28:20;6.55;;;2.60;;
21567;SDS011;10944;42.590;12.630;2023-03-13T15:30:48;8.68;;;2.90;;
21567;SDS011;10944;42.590;12.630;2023-03-13T15:33:16;9.88;;;2.97;;
21567;SDS011;10944;42.590;12.630;2023-03-13T15:35:44;9.48;;;2.97;;
21567;SDS011;10944;42.590;12.630;2023-03-13T15:38:20;10.40;;;3.63;;
21567;SDS011;10944;42.590;12.630;2023-03-13T15:40:47;15.25;;;4.40;;
21567;SDS011;10944;42.590;12.630;2023-03-13T15:43:13;8.02;;;3.38;;
21567;SDS011;10944;42.590;12.630;2023-03-13T15:45:41;9.18;;;3.67;;
21567;SDS011;10944;42.590;12.630;2023-03-13T15:50:49;9.23;;;3.55;;
21567;SDS011;10944;42.590;12.630;2023-03-13T15:53:28;11.48;;;3.40;;
21567;SDS011;10944;42.590;12.630;2023-03-13T15:55:57;9.65;;;2.97;;
21567;SDS011;10944;42.590;12.630;2023-03-13T15:58:24;9.30;;;3.00;;
21567;SDS011;10944;42.590;12.630;2023-03-13T16:00:52;10.55;;;3.78;;
21567;SDS011;10944;42.590;12.630;2023-03-13T16:03:19;11.80;;;3.65;;
21567;SDS011;10944;42.590;12.630;2023-03-13T16:05:49;9.35;;;4.03;;
21567;SDS011;10944;42.590;12.630;2023-03-13T16:08:17;8.07;;;3.38;;
21567;SDS011;10944;42.590;12.630;2023-03-13T16:10:44;7.82;;;2.90;;
21567;SDS011;10944;42.590;12.630;2023-03-13T16:13:10;6.40;;;2.67;;
21567;SDS011;10944;42.590;12.630;2023-03-13T16:15:36;8.43;;;3.20;;
21567;SDS011;10944;42.590;12.630;2023-03-13T16:18:02;9.93;;;3.35;;
21567;SDS011;10944;42.590;12.630;2023-03-13T16:20:29;10.07;;;3.00;;
21567;SDS011;10944;42.590;12.630;2023-03-13T16:22:56;10.43;;;3.42;;
21567;SDS011;10944;42.590;12.630;2023-03-13T16:25:22;8.50;;;3.13;;
21567;SDS011;10944;42.590;12.630;2023-03-13T16:27:49;12.02;;;4.03;;
21567;SDS011;10944;42.590;12.630;2023-03-13T16:30:21;10.77;;;4.22;;
21567;SDS011;10944;42.590;12.630;2023-03-13T16:32:49;14.48;;;3.70;;
21567;SDS011;10944;42.590;12.630;2023-03-13T16:35:15;9.45;;;3.42;;
21567;SDS011;10944;42.590;12.630;2023-03-13T16:37:42;10.80;;;2.95;;